Time;durP1;ratioP1;P1;durP2;ratioP2;P2;SDS_P1;SDS_P2;PMS_P1;PMS_P2;Temp;Humidity;BMP_temperature;BMP_pressure;BME280_temperature;BME280_humidity;BME280_pressure;Samples;Min_cycle;Max_cycle;Signal;HPM_P1;HPM_P2
2022/09/07 00:02:23;;;;;;;1.8;4.3;;;;;;;10.8;100;98860;;;;
2022/09/07 00:12:22;;;;;;;1.8;4.3;;;;;;;10.6;100;98870;;;;
2022/09/07 00:23:23;;;;;;;1.8;4.3;;;;;;;10.6;100;98870;;;;
2022/09/07 00:34:22;;;;;;;1.9;3.7;;;;;;;10.2;100;98850;;;;
2022/09/07 00:44:23;;;;;;;1.9;3.7;;;;;;;10;100;98860;;;;
2022/09/07 00:55:23;;;;;;;2;6.5;;;;;;;10;100;98850;;;;
2022/09/07 01:06:22;;;;;;;2;6.5;;;;;;;10.1;100;98860;;;;
2022/09/07 01:16:23;;;;;;;2;6.5;;;;;;;9.9;100;98860;;;;
2022/09/07 01:26:23;;;;;;;2.1;4.6;;;;;;;9.9;100;98840;;;;
2022/09/07 01:36:23;;;;;;;2.1;4.6;;;;;;;10;100;98840;;;;
2022/09/07 01:46:23;;;;;;;2.1;4.6;;;;;;;10.2;100;98840;;;;
2022/09/07 01:56:22;;;;;;;1.8;5.2;;;;;;;10.3;100;98820;;;;
2022/09/07 02:06:23;;;;;;;1.8;5.2;;;;;;;10.1;100;98820;;;;
2022/09/07 02:17:25;;;;;;;1.8;5.2;;;;;;;10.1;100;98810;;;;
2022/09/07 02:28:23;;;;;;;2.6;4.6;;;;;;;10;100;98800;;;;
2022/09/07 02:39:22;;;;;;;2.6;4.6;;;;;;;9.9;100;98800;;;;
2022/09/07 02:50:22;;;;;;;2.6;4.6;;;;;;;9.8;100;98800;;;;
2022/09/07 03:00:25;;;;;;;2.5;7.6;;;;;;;9.7;100;98800;;;;
2022/09/07 03:11:22;;;;;;;2.5;7.6;;;;;;;9.7;100;98810;;;;
2022/09/07 03:22:22;;;;;;;2.5;7.6;;;;;;;9.5;100;98800;;;;
2022/09/07 03:33:22;;;;;;;2.6;5.8;;;;;;;9.1;100;98800;;;;
2022/09/07 03:43:22;;;;;;;2.6;5.8;;;;;;;9;100;98800;;;;
2022/09/07 03:54:23;;;;;;;2.6;5.8;;;;;;;8.6;100;98810;;;;
2022/09/07 04:05:22;;;;;;;3.1;6.9;;;;;;;8.4;100;98810;;;;
2022/09/07 04:15:23;;;;;;;3.1;6.9;;;;;;;8.4;100;98810;;;;
2022/09/07 04:25:22;;;;;;;2.3;5.9;;;;;;;8.6;100;98830;;;;
2022/09/07 04:36:23;;;;;;;2.3;5.9;;;;;;;8.4;100;98840;;;;
2022/09/07 04:47:23;;;;;;;2.3;5.9;;;;;;;8.3;100;98830;;;;
2022/09/07 04:57:25;;;;;;;2.6;4.9;;;;;;;8.7;100;98830;;;;
2022/09/07 05:08:23;;;;;;;2.6;4.9;;;;;;;8.6;100;98820;;;;
2022/09/07 05:19:23;;;;;;;2.6;4.9;;;;;;;8.9;100;98810;;;;
2022/09/07 05:29:23;;;;;;;3.8;7.8;;;;;;;9.2;100;98820;;;;
2022/09/07 05:39:23;;;;;;;3.8;7.8;;;;;;;9.4;100;98820;;;;
2022/09/07 05:50:23;;;;;;;3.8;7.8;;;;;;;9.8;100;98820;;;;
2022/09/07 06:01:22;;;;;;;3.2;7.3;;;;;;;9.9;100;98830;;;;
2022/09/07 06:11:23;;;;;;;3.2;7.3;;;;;;;10.1;100;98830;;;;
2022/09/07 06:21:22;;;;;;;3.2;7.3;;;;;;;10.5;100;98820;;;;
2022/09/07 06:31:23;;;;;;;;;;;;;;;11.1;;;;;;
2022/09/07 06:42:23;;;;;;;3.7;7.7;;;;;;;11.6;100;98820;;;;
2022/09/07 06:53:23;;;;;;;3.7;7.7;;;;;;;12;100;98830;;;;
2022/09/07 07:03:23;;;;;;;4.8;8;;;;;;;12.4;100;98820;;;;
2022/09/07 07:14:23;;;;;;;4.8;8;;;;;;;12.6;100;98820;;;;
2022/09/07 07:25:23;;;;;;;4.8;7.9;;;;;;;13.2;100;98830;;;;
2022/09/07 07:36:23;;;;;;;4.8;7.9;;;;;;;13.4;100;98820;;;;
2022/09/07 07:46:23;;;;;;;4.8;7.9;;;;;;;13.9;100;98820;;;;
2022/09/07 07:56:23;;;;;;;5;8.5;;;;;;;14.4;100;98810;;;;
2022/09/07 08:07:23;;;;;;;5;8.5;;;;;;;14.8;100;98810;;;;
2022/09/07 08:18:22;;;;;;;5;8.5;;;;;;;15.3;100;98820;;;;
2022/09/07 08:28:23;;;;;;;4.9;9.2;;;;;;;15.8;100;98810;;;;
2022/09/07 08:39:23;;;;;;;4.9;9.2;;;;;;;16.2;100;98810;;;;
2022/09/07 08:49:22;;;;;;;4.9;9.2;;;;;;;16.6;100;98800;;;;
2022/09/07 09:00:23;;;;;;;5.3;9.6;;;;;;;16.9;100;98770;;;;
2022/09/07 09:10:23;;;;;;;5.3;9.6;;;;;;;17.1;100;98770;;;;
2022/09/07 09:21:23;;;;;;;5.3;9.6;;;;;;;17.7;99.7;98770;;;;
2022/09/07 09:31:23;;;;;;;4.7;9.8;;;;;;;17.7;100;98770;;;;
2022/09/07 09:42:23;;;;;;;4.7;9.8;;;;;;;18.5;97.2;98760;;;;
2022/09/07 09:52:23;;;;;;;4.7;9.8;;;;;;;18.9;96;98760;;;;
2022/09/07 10:03:24;;;;;;;5;11.9;;;;;;;19.2;92.8;98750;;;;
2022/09/07 10:14:23;;;;;;;5;11.9;;;;;;;19.7;91.5;98750;;;;
2022/09/07 10:25:23;;;;;;;4.6;9.6;;;;;;;19.9;92.2;98740;;;;
2022/09/07 10:36:23;;;;;;;4.6;9.6;;;;;;;20.2;91.8;98740;;;;
2022/09/07 10:46:23;;;;;;;4.6;9.6;;;;;;;20.6;89.7;98730;;;;
2022/09/07 10:57:23;;;;;;;5;10.9;;;;;;;20.5;94.2;98720;;;;
2022/09/07 11:07:23;;;;;;;5;10.9;;;;;;;20.9;89;98730;;;;
2022/09/07 11:17:23;;;;;;;5;10.9;;;;;;;20.8;89.6;98730;;;;
2022/09/07 11:28:23;;;;;;;5.1;10.7;;;;;;;21.3;90.9;98720;;;;
2022/09/07 11:38:24;;;;;;;5.1;10.7;;;;;;;21.4;88.5;98720;;;;
2022/09/07 11:48:23;;;;;;;5.1;10.7;;;;;;;21.5;86.8;98710;;;;
2022/09/07 11:59:23;;;;;;;4.5;7.9;;;;;;;22;87.6;98700;;;;
2022/09/07 12:09:23;;;;;;;4.5;7.9;;;;;;;22.1;83.9;98680;;;;
2022/09/07 12:20:23;;;;;;;4.5;7.9;;;;;;;22.3;85.6;98680;;;;
2022/09/07 12:31:23;;;;;;;4.3;8.2;;;;;;;22.6;85.4;98670;;;;
2022/09/07 12:42:23;;;;;;;4.3;8.2;;;;;;;22.7;83.9;98670;;;;
2022/09/07 12:53:23;;;;;;;4.3;8.2;;;;;;;23.1;84.5;98660;;;;
2022/09/07 13:03:23;;;;;;;4.5;9.4;;;;;;;23.3;81.8;98650;;;;
2022/09/07 13:13:24;;;;;;;4.5;9.4;;;;;;;23;82.7;98630;;;;
2022/09/07 13:23:23;;;;;;;4.5;9.4;;;;;;;23.4;80.1;98630;;;;
2022/09/07 13:33:23;;;;;;;4.3;10.7;;;;;;;23.3;81.7;98620;;;;
2022/09/07 13:43:23;;;;;;;4.3;10.7;;;;;;;23.4;79.4;98620;;;;
2022/09/07 13:54:23;;;;;;;4.3;10.7;;;;;;;23.9;79.5;98620;;;;
2022/09/07 14:05:23;;;;;;;4.1;7.6;;;;;;;24.1;79.6;98610;;;;
2022/09/07 14:15:23;;;;;;;4.1;7.6;;;;;;;24;79.7;98610;;;;
2022/09/07 14:25:24;;;;;;;4;11.6;;;;;;;24.1;80.5;98610;;;;
2022/09/07 14:36:23;;;;;;;4;11.6;;;;;;;24.2;77.2;98600;;;;
2022/09/07 14:46:23;;;;;;;4;11.6;;;;;;;24;79.8;98590;;;;
2022/09/07 14:57:23;;;;;;;4;9.5;;;;;;;24.2;78.4;98600;;;;
2022/09/07 15:07:23;;;;;;;4;9.5;;;;;;;24.8;74.3;98590;;;;
2022/09/07 15:18:23;;;;;;;4;9.5;;;;;;;27.4;67.2;98600;;;;
2022/09/07 15:29:23;;;;;;;3.8;6;;;;;;;28.2;64.3;98590;;;;
2022/09/07 15:39:23;;;;;;;3.8;6;;;;;;;28.2;63.2;98580;;;;
2022/09/07 15:49:23;;;;;;;3.8;6;;;;;;;28.9;60.9;98580;;;;
2022/09/07 15:59:23;;;;;;;3.6;7;;;;;;;28.3;61.7;98570;;;;
2022/09/07 16:10:24;;;;;;;3.6;7;;;;;;;28.9;61.1;98560;;;;
2022/09/07 16:21:23;;;;;;;3.6;7;;;;;;;28.7;61.6;98550;;;;
2022/09/07 16:31:23;;;;;;;3.9;7.9;;;;;;;28;62.6;98540;;;;
2022/09/07 16:41:25;;;;;;;3.9;7.9;;;;;;;25.5;70.1;98540;;;;
2022/09/07 16:52:23;;;;;;;3.9;7.9;;;;;;;23.7;76.3;98540;;;;
2022/09/07 17:02:23;;;;;;;4.4;9;;;;;;;22.2;83.1;98540;;;;
2022/09/07 17:13:23;;;;;;;4.4;9;;;;;;;21.1;89.6;98540;;;;
2022/09/07 17:23:23;;;;;;;4.4;9;;;;;;;20.2;96.5;98550;;;;
2022/09/07 17:33:23;;;;;;;6.5;11;;;;;;;19.5;100;98540;;;;
2022/09/07 17:44:23;;;;;;;6.5;11;;;;;;;18.9;100;98550;;;;
2022/09/07 17:55:23;;;;;;;6.8;10;;;;;;;18.5;100;98560;;;;
2022/09/07 18:05:23;;;;;;;6.8;10;;;;;;;17.9;100;98550;;;;
2022/09/07 18:16:23;;;;;;;;;;;;;;;;;;;;;
2022/09/07 18:27:24;;;;;;;9.3;13.1;;;;;;;17.2;100;98560;;;;
2022/09/07 18:37:23;;;;;;;9.3;13.1;;;;;;;17;100;98550;;;;
2022/09/07 18:48:23;;;;;;;9.3;13.1;;;;;;;16.9;100;98550;;;;
2022/09/07 18:59:23;;;;;;;11.6;18.1;;;;;;;16.8;100;98540;;;;
2022/09/07 19:09:23;;;;;;;11.6;18.1;;;;;;;16.7;100;98540;;;;
2022/09/07 19:19:23;;;;;;;11.6;18.1;;;;;;;16.5;100;98530;;;;
2022/09/07 19:29:23;;;;;;;14.5;19;;;;;;;16.5;100;98530;;;;
2022/09/07 19:39:23;;;;;;;14.5;19;;;;;;;16.3;100;98530;;;;
2022/09/07 19:50:23;;;;;;;14.5;19;;;;;;;16.1;100;98530;;;;
2022/09/07 20:01:23;;;;;;;11.5;19.6;;;;;;;15.8;100;98540;;;;
2022/09/07 20:12:23;;;;;;;11.5;19.6;;;;;;;15.6;100;98530;;;;
2022/09/07 20:22:23;;;;;;;11.5;19.6;;;;;;;15.4;100;98530;;;;
2022/09/07 20:33:23;;;;;;;12.8;18.1;;;;;;;15.2;100;98530;;;;
2022/09/07 20:43:23;;;;;;;12.8;18.1;;;;;;;15;100;98510;;;;
2022/09/07 20:53:23;;;;;;;12.8;18.1;;;;;;;14.9;100;98530;;;;
2022/09/07 21:04:25;;;;;;;13.6;20.1;;;;;;;14.9;100;98520;;;;
2022/09/07 21:15:23;;;;;;;13.6;20.1;;;;;;;14.7;100;98520;;;;
2022/09/07 21:26:23;;;;;;;14.6;18.4;;;;;;;14.5;100;98530;;;;
2022/09/07 21:37:23;;;;;;;14.6;18.4;;;;;;;14.3;100;98520;;;;
2022/09/07 21:47:23;;;;;;;14.6;18.4;;;;;;;14;100;98510;;;;
2022/09/07 21:57:23;;;;;;;14.7;20.8;;;;;;;14;100;98510;;;;
2022/09/07 22:08:23;;;;;;;14.7;20.8;;;;;;;13.9;100;98510;;;;
2022/09/07 22:18:23;;;;;;;14.7;20.8;;;;;;;13.6;100;98490;;;;
2022/09/07 22:28:23;;;;;;;13.8;19;;;;;;;13.5;100;98490;;;;
2022/09/07 22:38:23;;;;;;;13.8;19;;;;;;;13.4;100;98500;;;;
2022/09/07 22:49:23;;;;;;;13.8;19;;;;;;;13.2;100;98490;;;;
2022/09/07 23:00:23;;;;;;;13.8;19.1;;;;;;;12.9;100;98480;;;;
2022/09/07 23:10:23;;;;;;;13.8;19.1;;;;;;;12.9;100;98490;;;;
2022/09/07 23:21:23;;;;;;;13.8;19.1;;;;;;;12.8;100;98460;;;;
2022/09/07 23:32:23;;;;;;;12.2;15.8;;;;;;;12.7;100;98450;;;;
2022/09/07 23:42:23;;;;;;;12.2;15.8;;;;;;;12.6;100;98450;;;;
2022/09/07 23:52:23;;;;;;;12.2;15.8;;;;;;;12.5;100;98450;;;;
